Lake Oke North End current weather conditions

sailwx.info

Wind from 183 at 4 knots gusting 6

Air temperature 29.3° C
Dewpoint 24.2° C
Water temperature -7999.0° C

Last reported at 2019-Jul-17 15:45 UTC.
Time now 2019-Jul-17 16:24 UTC

Location: N 27°08' W 080°47'.
View on Google Maps.

See reports from other nearby stations

  
Tides and Currents Weather Stations Pressure Air Temp Water Temp Dewpoint Dewpoint Depression Visibility Wind Speed Wind Dir Waves Ship Positions
date/time (UTC)wind fromknots sea level pressurealtimeterstation pressurevisibilityair tempwater tempwave heightnotes
2019-Jul-17 15:45 183 4 gusting 6 29.3-7999.0
2019-Jul-17 15:30 190 5 gusting 7 29.2-7999.0
2019-Jul-17 15:15 168 5 gusting 7 29.1-7999.0
2019-Jul-17 14:45 168 5 gusting 7 29.0-7999.0
2019-Jul-17 14:30 165 5 gusting 7 28.9-7999.0
2019-Jul-17 14:15 160 5 gusting 6 28.7-7999.0
2019-Jul-17 13:45 160 5 gusting 6 28.6-7999.0
2019-Jul-17 13:30 164 5 gusting 6 28.6-7999.0
2019-Jul-17 13:15 165 4 gusting 6 28.5-7999.0
2019-Jul-17 13:00 153 4 gusting 5 28.4-7999.0
2019-Jul-17 12:45 148 4 gusting 5 28.3-7999.0
2019-Jul-17 12:30 127 3 gusting 4 28.3-7999.0
2019-Jul-17 12:15 135 3 gusting 4 28.2-7999.0
2019-Jul-17 11:45 126 3 gusting 4 28.1-7999.0
2019-Jul-17 11:30 113 3 gusting 4 28.2-7999.0
2019-Jul-17 11:15 112 4 gusting 5 28.0-7999.0
2019-Jul-17 10:45 101 4 gusting 5 28.0-7999.0
2019-Jul-17 10:30 123 4 gusting 5 28.1-7999.0
2019-Jul-17 10:15 134 5 gusting 7 28.2-7999.0
2019-Jul-17 10:00 149 6 gusting 8 28.4-7999.0
2019-Jul-17 09:45 160 6 gusting 7 28.4-7999.0
2019-Jul-17 09:30 150 4 gusting 6 28.3-7999.0
2019-Jul-17 09:15 137 5 gusting 7 28.2-7999.0
2019-Jul-17 09:00 138 5 gusting 6 28.2-7999.0
2019-Jul-17 08:45 147 5 gusting 6 28.2-7999.0
2019-Jul-17 08:30 134 5 gusting 6 28.2-7999.0
2019-Jul-17 08:15 128 5 gusting 7 28.3-7999.0
2019-Jul-17 08:00 143 6 gusting 9 28.6-7999.0
2019-Jul-17 07:45 149 7 gusting 9 28.4-7999.0
2019-Jul-17 07:30 149 8 gusting 9 28.4-7999.0
2019-Jul-17 07:15 149 7 gusting 9 28.6-7999.0
2019-Jul-17 07:00 148 7 gusting 8 28.6-7999.0
2019-Jul-17 06:45 150 7 gusting 9 28.6-7999.0
2019-Jul-17 06:30 158 9 gusting 11 28.7-7999.0
2019-Jul-17 06:15 158 10 gusting 12 28.8-7999.0
2019-Jul-17 06:00 154 9 gusting 11 28.8-7999.0
2019-Jul-17 05:45 151 10 gusting 11 28.8-7999.0
2019-Jul-17 05:30 148 9 gusting 11 28.9-7999.0
2019-Jul-17 05:15 153 10 gusting 12 29.1-7999.0
2019-Jul-17 05:00 150 11 gusting 12 29.1-7999.0
2019-Jul-17 04:45 144 11 gusting 12 29.2-7999.0
2019-Jul-17 04:30 146 11 gusting 12 29.3-7999.0
2019-Jul-17 04:15 142 12 gusting 13 29.1-7999.0
2019-Jul-17 04:00 132 9 gusting 11 29.0-7999.0
2019-Jul-17 03:30 131 9 gusting 11 29.0-7999.0
2019-Jul-17 03:15 130 9 gusting 10 29.0-7999.0
2019-Jul-17 02:45 126 8 gusting 9 29.0-7999.0
2019-Jul-17 02:30 125 9 gusting 10 29.1-7999.0
2019-Jul-17 02:15 123 10 gusting 11 29.3-7999.0
2019-Jul-17 02:00 117 9 gusting 11 29.4-7999.0
2019-Jul-17 01:45 111 9 gusting 11 29.5-7999.0
2019-Jul-17 01:30 114 9 gusting 11 29.7-7999.0
2019-Jul-17 01:15 113 9 gusting 11 29.8-7999.0
2019-Jul-17 01:00 105 8 gusting 10 29.9-7999.0
2019-Jul-17 00:45 104 9 gusting 10 30.1-7999.0
2019-Jul-17 00:30 104 9 gusting 11 30.3-7999.0
2019-Jul-17 00:15 105 9 gusting 11 30.6-7999.0
2019-Jul-17 00:00 113 8 gusting 9 30.7-7999.0
2019-Jul-16 23:45 119 8 gusting 9 30.8-7999.0
2019-Jul-16 23:30 126 8 gusting 9 30.7-7999.0
2019-Jul-16 23:15 124 7 gusting 8 30.6-7999.0
2019-Jul-16 23:00 118 7 gusting 9 30.8-7999.0
2019-Jul-16 22:45 115 6 gusting 8 30.6-7999.0
2019-Jul-16 22:30 127 6 gusting 7 30.6-7999.0
2019-Jul-16 22:15 137 4 gusting 5 30.7-7999.0
2019-Jul-16 21:45 152 5 gusting 6 30.6-7999.0
2019-Jul-16 21:30 156 6 gusting 7 30.4-7999.0
2019-Jul-16 21:15 161 7 gusting 8 30.2-7999.0
2019-Jul-16 20:45 149 10 gusting 11 29.6-7999.0
2019-Jul-16 20:30 142 10 gusting 12 29.2-7999.0
2019-Jul-16 20:15 130 12 gusting 13 28.9-7999.0
2019-Jul-16 19:45 145 9 gusting 13 28.8-7999.0
2019-Jul-16 19:30 141 9 gusting 12 28.9-7999.0
2019-Jul-16 19:15 129 12 gusting 16 28.3-7999.0
2019-Jul-16 18:45 134 14 gusting 23 30.1-7999.0
2019-Jul-16 18:30 195 6 gusting 7 31.2-7999.0
2019-Jul-16 18:15 224 5 gusting 8 31.2-7999.0
2019-Jul-16 17:45 214 4 gusting 5 30.9-7999.0
2019-Jul-16 17:30 221 4 gusting 6 30.6-7999.0
2019-Jul-16 17:15 230 4 gusting 5 30.4-7999.0
2019-Jul-16 16:45 220 3 gusting 4 30.3-7999.0
2019-Jul-16 16:30 218 1 gusting 4 30.4-7999.0
2019-Jul-16 16:15 208 2 gusting 3 30.1-7999.0
2019-Jul-16 15:45 180 2 gusting 4 29.7-7999.0
2019-Jul-16 15:30 178 3 gusting 4 29.5-7999.0
2019-Jul-16 15:15 170 3 gusting 5 29.3-7999.0
2019-Jul-16 14:45 156 4 gusting 5 29.1-7999.0
2019-Jul-16 14:30 149 4 gusting 6 29.1-7999.0
2019-Jul-16 14:15 146 4 gusting 6 29.0-7999.0
2019-Jul-16 13:45 151 4 gusting 5 28.7-7999.0
2019-Jul-16 13:30 136 4 gusting 5 28.7-7999.0
2019-Jul-16 13:15 124 4 gusting 5 28.6-7999.0
2019-Jul-16 12:45 103 5 gusting 5 28.4-7999.0
2019-Jul-16 12:30 091 5 gusting 6 28.2-7999.0
2019-Jul-16 12:15 083 5 gusting 6 28.0-7999.0
2019-Jul-16 12:00 080 5 gusting 6 27.8-7999.0
2019-Jul-16 11:45 080 5 gusting 6 27.7-7999.0
2019-Jul-16 11:30 062 6 gusting 7 27.1-7999.0
2019-Jul-16 11:15 054 6 gusting 8 27.1-7999.0
2019-Jul-16 11:00 072 6 gusting 7 27.5-7999.0
2019-Jul-16 10:45 109 6 gusting 7 27.8-7999.0
2019-Jul-16 10:30 109 6 gusting 8 27.9-7999.0
2019-Jul-16 10:15 108 7 gusting 8 27.9-7999.0
2019-Jul-16 10:00 105 7 gusting 8 27.8-7999.0
2019-Jul-16 09:45 091 7 gusting 8 27.7-7999.0
2019-Jul-16 09:30 079 7 gusting 8 27.4-7999.0
2019-Jul-16 09:15 073 8 gusting 9 27.6-7999.0
2019-Jul-16 09:00 084 8 gusting 9 27.7-7999.0
2019-Jul-16 08:45 080 8 gusting 9 27.8-7999.0
2019-Jul-16 08:30 079 7 gusting 9 27.5-7999.0
2019-Jul-16 08:15 067 7 gusting 8 27.5-7999.0
2019-Jul-16 08:00 054 6 gusting 7 27.4-7999.0
2019-Jul-16 07:45 055 6 gusting 7 27.8-7999.0
2019-Jul-16 07:30 084 6 gusting 7 28.3-7999.0
2019-Jul-16 07:15 108 5 gusting 6 28.3-7999.0
2019-Jul-16 07:00 114 5 gusting 6 28.4-7999.0
2019-Jul-16 06:45 116 6 gusting 7 28.4-7999.0
2019-Jul-16 06:30 119 6 gusting 7 28.4-7999.0
2019-Jul-16 06:15 120 6 gusting 7 28.4-7999.0
2019-Jul-16 06:00 122 6 gusting 7 28.4-7999.0
2019-Jul-16 05:45 116 6 gusting 6 28.4-7999.0
2019-Jul-16 05:30 114 6 gusting 7 28.5-7999.0
2019-Jul-16 05:15 113 6 gusting 7 28.5-7999.0
2019-Jul-16 05:00 109 6 gusting 7 28.4-7999.0
2019-Jul-16 04:45 110 7 gusting 8 28.6-7999.0
2019-Jul-16 04:30 103 7 gusting 8 28.6-7999.0
2019-Jul-16 04:15 107 8 gusting 9 28.9-7999.0
2019-Jul-16 04:00 115 8 gusting 9 28.9-7999.0
2019-Jul-16 03:45 113 9 gusting 11 28.9-7999.0
2019-Jul-16 03:30 119 10 gusting 11 28.8-7999.0
2019-Jul-16 03:15 112 9 gusting 10 28.8-7999.0
2019-Jul-16 02:45 108 11 gusting 12 29.0-7999.0
2019-Jul-16 02:30 104 11 gusting 13 29.0-7999.0
2019-Jul-16 02:15 099 10 gusting 12 28.9-7999.0
2019-Jul-16 02:00 093 11 gusting 12 29.0-7999.0
2019-Jul-16 01:45 088 11 gusting 12 29.1-7999.0
2019-Jul-16 01:30 086 11 gusting 13 29.3-7999.0
2019-Jul-16 01:15 084 12 gusting 13 29.6-7999.0
2019-Jul-16 01:00 083 12 gusting 14 29.9-7999.0
2019-Jul-16 00:45 085 12 gusting 13 30.1-7999.0
2019-Jul-16 00:30 091 11 gusting 13 30.3-7999.0
2019-Jul-16 00:15 100 12 gusting 13 30.5-7999.0
2019-Jul-16 00:00 104 12 gusting 14 30.9-7999.0
2019-Jul-15 23:45 098 12 gusting 14 31.3-7999.0
2019-Jul-15 23:30 098 12 gusting 14 31.7-7999.0
2019-Jul-15 23:15 098 12 gusting 14 31.9-7999.0
2019-Jul-15 23:00 099 12 gusting 13 32.1-7999.0
2019-Jul-15 22:45 098 12 gusting 13 32.3-7999.0
2019-Jul-15 22:30 099 11 gusting 13 32.5-7999.0
2019-Jul-15 22:15 098 12 gusting 15 32.6-7999.0
2019-Jul-15 22:00 102 11 gusting 13 32.7-7999.0
2019-Jul-15 21:45 105 10 gusting 12 32.7-7999.0
2019-Jul-15 21:30 119 11 gusting 13 32.7-7999.0
2019-Jul-15 21:15 114 9 gusting 13 33.0-7999.0
2019-Jul-15 21:00 142 2 gusting 7 33.2-7999.0
2019-Jul-15 20:45 215 1 gusting 2 32.7-7999.0
2019-Jul-15 20:30 182 1 gusting 3 33.0-7999.0
2019-Jul-15 20:15 207 0 gusting 1 33.1-7999.0
2019-Jul-15 20:00 219 1 gusting 2 32.3-7999.0
2019-Jul-15 19:45 240 1 gusting 3 31.7-7999.0
2019-Jul-15 19:30 224 2 gusting 4 31.5-7999.0
2019-Jul-15 19:15 224 4 gusting 5 31.1-7999.0
2019-Jul-15 19:00 211 5 gusting 6 31.1-7999.0
2019-Jul-15 18:45 222 4 gusting 6 30.9-7999.0
2019-Jul-15 18:30 220 5 gusting 6 30.8-7999.0
2019-Jul-15 18:15 215 6 gusting 7 30.6-7999.0
2019-Jul-15 18:00 223 6 gusting 8 30.4-7999.0
2019-Jul-15 17:45 219 7 gusting 8 30.2-7999.0
2019-Jul-15 17:30 222 7 gusting 8 30.2-7999.0
2019-Jul-15 17:15 217 6 gusting 7 30.1-7999.0
2019-Jul-15 17:00 223 5 gusting 7 30.0-7999.0
2019-Jul-15 16:45 210 6 gusting 8 30.2-7999.0
2019-Jul-15 16:30 200 4 gusting 6 30.4-7999.0
2019-Jul-15 16:15 183 4 gusting 6 30.4-7999.0
2019-Jul-15 16:00 197 4 gusting 5 30.1-7999.0